Terminal Aerodrome Forecast
Issued by NWS

Current Version | Previous Version | Text Only | Print | Product List | Glossary On
Versions: 1 2 3 4 5 6 7 8 9 10 11 12 13 14 15 16 17 18 19
000
FTUS42 KGSP 240520
TAFAND
TAF
KAND 240520Z 2406/2506 08003KT P6SM SCT250
     FM240900 VRB02KT P6SM SCT015
     FM241000 VRB02KT 5SM BR BKN008
     FM241200 VRB02KT 4SM BR BKN003
     FM241300 09003KT 4SM BR BKN008
     FM241400 12004KT P6SM BKN012
     FM241600 16005KT P6SM SCT045
     FM242100 17006KT P6SM FEW100 SCT250=

USA.gov is the U.S. government's official web portal to all federal, state and local government web resources and services.